AirNav   Bose ProFlight Series 2 Headset
 
 947 users online  

50MI Burgess Lake Seaplane Base
Greenville, Michigan, USA

GOING TO GREENVILLE?


FAA INFORMATION EFFECTIVE 27 FEBRUARY 2020

Location

FAA Identifier: 50MI
Lat/Long: 43-09-26.1110N 085-17-39.0810W
43-09.435183N 085-17.651350W
43.1572531,-85.2941892
(estimated)
Elevation: 799 ft. / 243.5 m (surveyed)
Variation: 04W (1990)
From city: 2 miles SW of GREENVILLE, MI
Time zone: UTC -5 (UTC -4 during Daylight Saving Time)
Zip code: 48838

Seaplane Base Operations

Seaplane Base use: Private use. Permission required prior to landing
Activation date: 03/1994
Control tower: no
ARTCC: CHICAGO CENTER
FSS: LANSING FLIGHT SERVICE STATION
Attendance: UNATNDD
Wind indicator: no
Segmented circle: no

Seaplane Base Communications

WX AWOS-3 at Y70 (17 nm SE): 118.9 (616-523-1852)
WX ASOS at GRR (19 nm SW): 118.725 (616-575-1953)

Nearby radio navigation aids

VOR radial/distance  VOR name  Freq  Var
VIOr026/23.9VICTORY VOR/DME115.9504W
HICr145/31.1WHITE CLOUD VOR/DME117.6001W
MKGr092/32.6MUSKEGON VORTAC115.2001W
MOPr226/37.0MOUNT PLEASANT VOR/DME110.6005W

Seaplane Base Services

Runway Information

Runway 9W/27W

Dimensions: 4000 x 300 ft. / 1219 x 91 m
Surface: water
RUNWAY 9W  RUNWAY 27W
Traffic pattern: leftleft

Seaplane Base Ownership and Management from official FAA records

Ownership: Privately-owned
Owner: BRUCE ATHEY
11077 ARLOA DR
GREENVILLE, MI 48838
Phone 616-232-8711
Manager: BRUCE ATHEY
11077 ARLOA DR
GREENVILLE, MI 48838
Phone 616-232-8711

Seaplane Base Operational Statistics

Aircraft based on the field: 1
Single engine airplanes: 1
    

Additional Remarks

FOR CD CTC GREAT LAKES APCH AT 269-459-3345, WHEN APCH CLSD CTC CHICAGO ARTCC AT 630-906-8921.

Instrument Procedures

There are no published instrument procedures at 50MI.

Some nearby airports with instrument procedures:

6D6 - Greenville Municipal Airport (2 nm SE)
Y70 - Ionia County Airport (17 nm SE)
8D4 - Paul C Miller-Sparta Airport (17 nm W)
13C - Lakeview Airport-Griffith Field (18 nm N)
KGRR - Gerald R Ford International Airport (19 nm SW)
 
Loc | Ops | Rwys | IFR | FBO | Links
Com | Nav | Svcs | Stats | Notes
Area around 50MI (Burgess Lake Seaplane Base)
 
Road maps at: MapQuest Bing Google
 
Aerial photo
No photo
 
Sectional chart

 
Airport distance calculator
Flying to Burgess Lake Seaplane Base? Find the distance to fly.

From to 50MI

Sunrise and sunset
Times for 27-Feb-2020
 Local
(UTC-5)
 Zulu
(UTC)
Morning civil twilight06:5311:53
Sunrise07:2212:22
Sunset18:2623:26
Evening civil twilight18:5523:55

Current date and time
Zulu (UTC)  27-Feb-2020 12:33:44
Local (UTC-5)  27-Feb-2020 07:33:44
 
METAR
KY70 
17nm SE 
271216Z AUTO 28012KT 10SM -SN OVC040 M06/M12 A2990 RMK AO2 T10601125
KGRR 
19nm SW 
271153Z 30013G24KT 9SM -SN FEW035 OVC043 M06/M13 A2993 RMK AO2 PK WND 29027/1103 SLP147 4/001 P0000 60000 70009 T10561128 11044 21056 53002
KAMN 
28nm E 
271215Z AUTO 28012G20KT 10SM SCT040 SCT045 OVC050 M05/M12 A2988 RMK AO2 T10531121
TAF
KGRR 
19nm SW 
271140Z 2712/2812 30015G25KT P6SM -SHSN OVC035 FM280500 28010KT P6SM OVC035
NOTAMs
Click for the latest NOTAMs
NOTAMs are issued by the DoD/FAA and will open in a separate window not controlled by AirNav.

 

 
 

Would you like to see your business listed on this page?

 If your business provides an interesting product or service to pilots, flight crews, aircraft, or users of the Burgess Lake Seaplane Base, you should consider listing it here.  To start the listing process, click on the button below
 
Add a business
 

Other Pages about Burgess Lake Seaplane Base

Update a link
 
Copyright © AirNav, LLC. All rights reserved. Privacy Policy  Contact